Time;durP1;ratioP1;P1;durP2;ratioP2;P2;SDS_P1;SDS_P2;PMS_P1;PMS_P2;Temp;Humidity;BMP_temperature;BMP_pressure;BME280_temperature;BME280_humidity;BME280_pressure;Samples;Min_cycle;Max_cycle;Signal;HPM_P1;HPM_P2
2022/08/20 00:01:50;;;;;;;16.25;10.40;;;;;;;16.25;100.00;95386.28;5066651;28;20391;-77
2022/08/20 00:04:16;;;;;;;17.42;10.68;;;;;;;16.27;100.00;95389.41;5069399;28;20036;-77
2022/08/20 00:06:41;;;;;;;15.98;10.07;;;;;;;16.22;100.00;95393.00;5055195;28;20047;-77
2022/08/20 00:09:07;;;;;;;14.77;9.90;;;;;;;16.24;100.00;95392.69;5048971;28;20602;-77
2022/08/20 00:11:33;;;;;;;14.68;10.30;;;;;;;16.28;100.00;95396.31;5064247;28;20051;-76
2022/08/20 00:14:04;;;;;;;19.48;10.57;;;;;;;16.29;100.00;95403.16;5067855;28;20040;-77
2022/08/20 00:16:34;;;;;;;16.65;10.68;;;;;;;16.33;100.00;95398.78;5058721;28;20154;-77
2022/08/20 00:19:00;;;;;;;16.25;11.07;;;;;;;16.33;100.00;95404.09;5067844;28;20041;-77
2022/08/20 00:21:26;;;;;;;16.73;11.20;;;;;;;16.30;100.00;95394.09;5058860;28;20533;-77
2022/08/20 00:23:54;;;;;;;18.08;10.88;;;;;;;16.30;100.00;95394.09;5043603;28;20028;-77
2022/08/20 00:26:20;;;;;;;14.85;9.93;;;;;;;16.24;100.00;95390.03;5050476;28;20048;-74
2022/08/20 00:28:46;;;;;;;18.90;11.13;;;;;;;16.28;100.00;95391.75;5064019;28;20121;-76
2022/08/20 00:31:14;;;;;;;15.80;10.65;;;;;;;16.24;100.00;95384.72;5056531;28;20041;-77
2022/08/20 00:33:40;;;;;;;18.63;9.90;;;;;;;16.23;100.00;95391.13;5068336;28;20040;-77
2022/08/20 00:36:11;;;;;;;17.55;9.98;;;;;;;16.24;100.00;95390.03;5068707;28;20090;-76
2022/08/20 00:38:41;;;;;;;16.20;10.25;;;;;;;16.22;100.00;95392.19;5066450;28;20135;-76
2022/08/20 00:41:11;;;;;;;14.63;10.45;;;;;;;16.20;100.00;95383.78;5054159;28;20040;-76
2022/08/20 00:43:43;;;;;;;17.73;10.55;;;;;;;16.26;100.00;95393.16;5050663;28;20654;-77
2022/08/20 00:46:24;;;;;;;18.45;11.07;;;;;;;16.22;100.00;95398.31;5071037;28;20037;-76
2022/08/20 00:48:53;;;;;;;17.20;10.55;;;;;;;16.23;100.00;95399.09;5061702;28;20041;-77
2022/08/20 00:51:33;;;;;;;16.95;10.63;;;;;;;16.20;100.00;95399.69;5064655;28;20051;-77
2022/08/20 00:54:10;;;;;;;18.35;10.75;;;;;;;16.25;100.00;95400.34;5070897;28;20040;-77
2022/08/20 00:56:37;;;;;;;17.33;11.75;;;;;;;16.25;100.00;95405.66;5067290;28;20461;-76
2022/08/20 00:59:10;;;;;;;15.90;11.13;;;;;;;16.30;100.00;95402.06;5065684;28;20040;-76
2022/08/20 01:01:38;;;;;;;17.83;11.43;;;;;;;16.28;100.00;95412.22;5053494;28;20558;-77
2022/08/20 01:04:04;;;;;;;20.40;12.18;;;;;;;16.32;100.00;95402.56;5054007;28;20044;-76
2022/08/20 01:06:30;;;;;;;20.08;11.70;;;;;;;16.26;100.00;95403.78;5069941;28;20046;-76
2022/08/20 01:08:57;;;;;;;20.80;11.95;;;;;;;16.37;100.00;95409.59;5063866;28;20045;-76
2022/08/20 01:11:32;;;;;;;19.13;12.43;;;;;;;16.31;100.00;95411.59;5067682;28;20033;-76
2022/08/20 01:13:59;;;;;;;21.05;12.55;;;;;;;16.32;100.00;95418.50;5070076;28;20262;-77
2022/08/20 01:16:30;;;;;;;19.30;12.82;;;;;;;16.36;100.00;95413.34;5070528;28;20036;-76
2022/08/20 01:18:57;;;;;;;19.70;12.77;;;;;;;16.36;100.00;95408.78;5070923;28;20040;-77
2022/08/20 01:21:27;;;;;;;20.67;13.13;;;;;;;16.32;100.00;95415.03;5066863;28;20094;-77
2022/08/20 01:23:59;;;;;;;22.55;13.27;;;;;;;16.31;100.00;95408.97;5046939;28;20095;-77
2022/08/20 01:26:27;;;;;;;19.63;12.50;;;;;;;16.33;100.00;95414.72;5068234;28;20495;-77
2022/08/20 01:29:01;;;;;;;20.65;12.98;;;;;;;16.25;100.00;95412.84;5069265;28;20035;-77
2022/08/20 01:31:30;;;;;;;18.20;12.47;;;;;;;16.27;100.00;95415.97;5067858;28;20037;-77
2022/08/20 01:33:58;;;;;;;20.90;12.95;;;;;;;16.27;100.00;95418.63;5069892;28;20036;-77
2022/08/20 01:36:30;;;;;;;19.35;13.10;;;;;;;16.29;100.00;95419.09;5069692;28;20040;-77
2022/08/20 01:38:58;;;;;;;24.13;13.18;;;;;;;16.26;100.00;95409.09;5050363;28;20418;-77
2022/08/20 01:41:38;;;;;;;23.05;13.40;;;;;;;16.20;100.00;95410.31;5060693;28;20441;-77
2022/08/20 01:44:04;;;;;;;19.75;13.38;;;;;;;16.17;100.00;95410.94;5070492;28;20379;-77
2022/08/20 01:46:34;;;;;;;26.73;14.68;;;;;;;16.19;100.00;95408.75;5067842;28;20623;-77
2022/08/20 01:49:08;;;;;;;21.88;13.57;;;;;;;16.17;100.00;95408.28;5068682;28;20509;-77
2022/08/20 01:51:34;;;;;;;22.67;13.57;;;;;;;16.23;100.00;95415.81;5053300;28;20036;-77
2022/08/20 01:53:59;;;;;;;22.98;14.80;;;;;;;16.21;100.00;95406.59;5072344;28;20093;-77
2022/08/20 01:56:29;;;;;;;23.92;14.15;;;;;;;16.21;100.00;95417.97;5052923;28;20123;-77
2022/08/20 01:58:59;;;;;;;22.15;13.82;;;;;;;16.21;100.00;95411.91;5061908;28;20510;-77
2022/08/20 02:01:33;;;;;;;23.60;14.75;;;;;;;16.14;100.00;95416.88;5067015;28;20481;-77
2022/08/20 02:04:01;;;;;;;23.50;14.68;;;;;;;16.11;100.00;95419.03;5068299;28;20045;-77
2022/08/20 02:06:29;;;;;;;23.70;14.57;;;;;;;16.17;100.00;95416.25;5068073;28;20075;-77
2022/08/20 02:08:58;;;;;;;25.85;14.57;;;;;;;16.11;100.00;95413.72;5052158;28;20116;-77
2022/08/20 02:11:23;;;;;;;26.98;15.57;;;;;;;16.03;100.00;95411.03;5067763;28;20585;-77
2022/08/20 02:13:51;;;;;;;26.10;15.55;;;;;;;16.06;100.00;95421.03;5059680;28;20052;-77
2022/08/20 02:16:23;;;;;;;26.95;16.13;;;;;;;15.99;100.00;95421.50;5070188;28;20067;-77
2022/08/20 02:18:53;;;;;;;29.50;16.15;;;;;;;16.03;100.00;95416.34;5052757;28;20122;-77
2022/08/20 02:21:21;;;;;;;29.35;15.48;;;;;;;16.00;100.00;95423.03;5066521;28;20048;-78
2022/08/20 02:23:47;;;;;;;27.05;16.02;;;;;;;16.00;100.00;95428.34;5071602;28;20051;-77
2022/08/20 02:26:13;;;;;;;27.65;16.52;;;;;;;15.97;100.00;95426.31;5066643;28;20508;-78
2022/08/20 02:28:38;;;;;;;30.27;17.13;;;;;;;15.98;100.00;95430.53;5071697;28;20044;-78
2022/08/20 02:31:07;;;;;;;29.65;16.10;;;;;;;15.99;100.00;95431.31;5054429;28;20044;-78
2022/08/20 02:33:33;;;;;;;27.17;16.73;;;;;;;15.97;100.00;95436.94;5072061;28;20041;-78
2022/08/20 02:35:58;;;;;;;27.30;16.48;;;;;;;15.99;100.00;95432.09;5070597;28;20044;-80
2022/08/20 02:38:24;;;;;;;31.60;16.65;;;;;;;15.93;100.00;95433.31;5072192;28;20041;-80
2022/08/20 02:40:50;;;;;;;33.10;18.13;;;;;;;15.91;100.00;95435.50;5069882;28;20040;-80
2022/08/20 02:43:18;;;;;;;30.45;18.02;;;;;;;15.95;100.00;95431.16;5053749;28;20040;-78
2022/08/20 02:45:45;;;;;;;34.63;17.73;;;;;;;15.87;100.00;95429.22;5051384;28;20040;-78
2022/08/20 02:48:19;;;;;;;33.83;17.88;;;;;;;15.83;100.00;95421.13;5064924;28;20045;-77
2022/08/20 02:50:46;;;;;;;;;;;;;;;15.82;100.00;95427.50;5068832;28;20512;-79
2022/08/20 02:53:12;;;;;;;32.25;17.30;;;;;;;15.80;100.00;95423.56;5054901;28;19921;-77
2022/08/20 02:55:37;;;;;;;28.77;17.67;;;;;;;15.77;100.00;95428.38;5063194;28;20037;-77
2022/08/20 02:58:03;;;;;;;32.47;18.35;;;;;;;15.81;100.00;95435.75;5067076;28;20049;-78
2022/08/20 03:00:30;;;;;;;31.30;17.50;;;;;;;15.81;100.00;95435.75;5058475;28;20505;-77
2022/08/20 03:02:56;;;;;;;31.10;17.20;;;;;;;15.78;100.00;95426.50;5067188;28;20044;-78
2022/08/20 03:05:21;;;;;;;33.85;17.67;;;;;;;15.77;100.00;95431.03;5069127;28;20545;-77
2022/08/20 03:07:52;;;;;;;31.10;17.27;;;;;;;15.84;100.00;95432.50;5066384;28;20115;-77
2022/08/20 03:10:29;;;;;;;32.50;17.10;;;;;;;15.83;100.00;95434.38;5061368;28;20114;-77
2022/08/20 03:12:54;;;;;;;31.10;17.70;;;;;;;15.81;100.00;95436.53;5051066;28;20093;-77
2022/08/20 03:15:20;;;;;;;37.33;19.48;;;;;;;15.79;100.00;95432.63;5063715;28;20049;-77
2022/08/20 03:17:46;;;;;;;33.88;19.30;;;;;;;15.78;100.00;95437.13;5061937;28;20516;-77
2022/08/20 03:20:13;;;;;;;34.03;18.58;;;;;;;15.84;100.00;95445.75;5068198;28;20452;-76
2022/08/20 03:22:39;;;;;;;31.83;18.10;;;;;;;15.82;100.00;95447.94;5065942;28;20573;-77
2022/08/20 03:25:06;;;;;;;35.45;18.80;;;;;;;15.79;100.00;95443.22;5048526;28;20045;-78
2022/08/20 03:27:31;;;;;;;37.35;19.13;;;;;;;15.75;100.00;95443.81;5052781;28;20044;-77
2022/08/20 03:29:57;;;;;;;33.65;19.38;;;;;;;15.82;100.00;95447.94;5058098;28;20040;-77
2022/08/20 03:32:22;;;;;;;31.60;18.20;;;;;;;15.81;100.00;95443.72;5058119;28;20098;-77
2022/08/20 03:34:48;;;;;;;32.70;17.40;;;;;;;15.79;100.00;95449.34;5067020;28;20052;-77
2022/08/20 03:37:13;;;;;;;32.50;17.95;;;;;;;15.81;100.00;95451.69;5066310;28;20052;-77
2022/08/20 03:39:39;;;;;;;34.53;19.25;;;;;;;15.80;100.00;95452.75;5044860;28;20040;-77
2022/08/20 03:42:05;;;;;;;35.03;18.92;;;;;;;15.75;100.00;95449.13;5066970;28;20036;-77
2022/08/20 03:44:31;;;;;;;33.28;18.27;;;;;;;15.81;100.00;95459.66;5069088;28;20489;-77
2022/08/20 03:46:57;;;;;;;36.78;19.77;;;;;;;15.79;100.00;95461.81;5065853;28;20045;-77
2022/08/20 03:49:23;;;;;;;32.75;18.65;;;;;;;15.79;100.00;95464.44;5068609;28;20414;-77
2022/08/20 03:51:49;;;;;;;31.23;17.05;;;;;;;15.79;100.00;95467.09;5052091;28;20040;-77
2022/08/20 03:54:15;;;;;;;34.15;18.55;;;;;;;15.75;100.00;95465.03;5063675;28;20566;-77
2022/08/20 03:56:41;;;;;;;33.50;19.13;;;;;;;15.71;100.00;95466.72;5049512;28;20497;-77
2022/08/20 03:59:07;;;;;;;34.47;18.48;;;;;;;15.72;100.00;95470.94;5067163;28;20069;-77
2022/08/20 04:01:32;;;;;;;33.25;18.80;;;;;;;15.72;100.00;95465.66;5062604;28;20507;-77
2022/08/20 04:03:59;;;;;;;35.53;18.60;;;;;;;15.72;100.00;95460.34;5064504;28;20048;-77
2022/08/20 04:06:26;;;;;;;37.75;18.85;;;;;;;15.69;100.00;95466.25;5051671;28;20464;-77
2022/08/20 04:08:52;;;;;;;33.38;19.02;;;;;;;15.70;100.00;95467.84;5067330;28;20799;-77
2022/08/20 04:11:18;;;;;;;33.88;18.20;;;;;;;15.70;100.00;95465.19;5061131;28;20045;-77
2022/08/20 04:13:44;;;;;;;38.30;18.38;;;;;;;15.74;100.00;95463.47;5064222;28;20048;-77
2022/08/20 04:16:09;;;;;;;31.27;17.10;;;;;;;15.75;100.00;95465.03;5067580;28;20036;-77
2022/08/20 04:18:35;;;;;;;35.80;18.67;;;;;;;15.73;100.00;95467.22;5068207;28;20510;-78
2022/08/20 04:21:02;;;;;;;38.22;19.55;;;;;;;15.69;100.00;95471.56;5065835;28;20048;-76
2022/08/20 04:23:30;;;;;;;35.78;18.10;;;;;;;15.71;100.00;95474.69;5051323;28;20063;-77
2022/08/20 04:25:56;;;;;;;35.47;18.60;;;;;;;15.70;100.00;95473.13;5049401;28;20766;-77
2022/08/20 04:28:25;;;;;;;36.85;18.80;;;;;;;15.71;100.00;95480.00;5050326;28;20044;-77
2022/08/20 04:30:52;;;;;;;32.80;18.80;;;;;;;15.72;100.00;95476.25;5053501;28;20122;-77
2022/08/20 04:33:23;;;;;;;33.47;18.25;;;;;;;15.66;100.00;95482.78;5068429;28;20052;-77
2022/08/20 04:35:49;;;;;;;38.35;18.52;;;;;;;15.67;100.00;95484.31;5039014;28;20040;-77
2022/08/20 04:38:17;;;;;;;34.00;17.80;;;;;;;15.71;100.00;95498.56;5054208;28;20037;-77
2022/08/20 04:40:53;;;;;;;37.00;18.83;;;;;;;15.75;100.00;95490.78;5065623;28;20037;-77
2022/08/20 04:43:22;;;;;;;34.08;18.63;;;;;;;15.69;100.00;95492.78;5066740;28;20036;-78
2022/08/20 04:45:50;;;;;;;35.65;18.95;;;;;;;15.70;100.00;95494.34;5067483;28;20041;-77
2022/08/20 04:48:17;;;;;;;32.58;17.85;;;;;;;15.76;100.00;95487.06;5051106;28;20040;-77
2022/08/20 04:50:44;;;;;;;31.25;17.55;;;;;;;15.77;100.00;95484.09;5060211;28;20048;-77
2022/08/20 04:53:12;;;;;;;33.22;18.05;;;;;;;15.75;100.00;95496.09;5063624;28;20097;-77
2022/08/20 04:55:41;;;;;;;34.90;17.98;;;;;;;15.76;100.00;95487.06;5065990;28;20280;-77
2022/08/20 04:58:10;;;;;;;39.08;18.85;;;;;;;15.74;100.00;95489.22;5060091;28;20474;-77
2022/08/20 05:00:37;;;;;;;32.33;17.65;;;;;;;15.72;100.00;95492.19;5058877;28;20406;-77
2022/08/20 05:03:03;;;;;;;29.80;17.92;;;;;;;15.72;100.00;95492.19;5070801;28;20044;-77
2022/08/20 05:05:29;;;;;;;29.50;17.30;;;;;;;15.80;100.00;95498.63;5068510;28;20055;-77
2022/08/20 05:07:56;;;;;;;31.85;18.30;;;;;;;15.80;100.00;95492.56;5064722;28;20109;-77
2022/08/20 05:10:22;;;;;;;28.63;16.65;;;;;;;15.76;100.00;95503.75;5041697;28;20037;-77
2022/08/20 05:12:48;;;;;;;31.83;17.58;;;;;;;15.76;100.00;95498.44;5050515;28;20120;-77
2022/08/20 05:15:14;;;;;;;31.15;17.40;;;;;;;15.75;100.00;95496.88;5068351;28;20071;-77
2022/08/20 05:17:41;;;;;;;32.17;18.08;;;;;;;15.72;100.00;95502.78;5068402;28;20690;-77
2022/08/20 05:20:09;;;;;;;32.33;17.08;;;;;;;15.70;100.00;95497.00;5070502;28;20554;-77
2022/08/20 05:22:35;;;;;;;31.75;18.38;;;;;;;15.66;100.00;95501.34;5068128;28;20102;-77
2022/08/20 05:25:01;;;;;;;34.97;19.67;;;;;;;15.70;100.00;95512.94;5054070;28;20045;-77
2022/08/20 05:27:28;;;;;;;31.77;17.77;;;;;;;15.70;100.00;95507.63;5070572;28;20052;-77
2022/08/20 05:30:04;;;;;;;31.50;17.42;;;;;;;15.75;100.00;95514.66;5069764;28;20039;-77
2022/08/20 05:32:29;;;;;;;29.98;18.17;;;;;;;15.82;100.00;95516.94;5066579;28;20437;-77
2022/08/20 05:34:56;;;;;;;31.27;16.88;;;;;;;15.80;100.00;95524.41;5054037;28;20122;-77
2022/08/20 05:37:21;;;;;;;32.88;18.30;;;;;;;15.86;100.00;95520.53;5065382;28;20036;-77
2022/08/20 05:39:47;;;;;;;33.42;17.77;;;;;;;15.83;100.00;95523.78;5071572;28;20033;-77
2022/08/20 05:42:12;;;;;;;28.83;17.60;;;;;;;15.88;100.00;95516.50;5064977;28;20040;-77
2022/08/20 05:44:38;;;;;;;32.45;18.05;;;;;;;15.91;100.00;95521.19;5072548;28;20052;-77
2022/08/20 05:47:04;;;;;;;31.00;17.60;;;;;;;15.91;100.00;95531.03;5071326;28;20041;-77
2022/08/20 05:49:30;;;;;;;31.80;18.25;;;;;;;15.84;100.00;95526.13;5051656;28;20029;-78
2022/08/20 05:51:57;;;;;;;33.60;18.00;;;;;;;15.85;100.00;95532.25;5070441;28;20399;-77
2022/08/20 05:54:23;;;;;;;32.40;18.02;;;;;;;15.89;100.00;95533.22;5071941;28;20521;-78
2022/08/20 05:56:49;;;;;;;30.20;17.13;;;;;;;15.94;100.00;95530.41;5070439;28;20106;-78
2022/08/20 05:59:15;;;;;;;33.30;18.15;;;;;;;15.99;100.00;95532.97;5069551;28;20076;-78
2022/08/20 06:01:41;;;;;;;28.38;17.00;;;;;;;15.93;100.00;95531.50;5066050;28;20086;-78
2022/08/20 06:04:30;;;;;;;30.88;17.35;;;;;;;15.99;100.00;95538.28;5054684;28;20040;-77
2022/08/20 06:07:06;;;;;;;29.80;16.45;;;;;;;16.04;100.00;95535.47;5072498;28;20056;-78
2022/08/20 06:09:32;;;;;;;31.75;17.30;;;;;;;16.01;100.00;95536.09;5051467;28;20091;-78
2022/08/20 06:12:00;;;;;;;32.45;17.60;;;;;;;16.08;100.00;95541.75;5066691;28;20135;-79
2022/08/20 06:14:25;;;;;;;30.73;17.58;;;;;;;16.08;100.00;95541.75;5069685;28;20316;-78
2022/08/20 06:16:51;;;;;;;27.67;16.75;;;;;;;16.15;100.00;95540.53;5072418;28;20086;-78
2022/08/20 06:19:16;;;;;;;28.48;15.85;;;;;;;16.14;100.00;95544.28;5071210;28;20040;-78
2022/08/20 06:21:42;;;;;;;30.15;16.75;;;;;;;16.16;100.00;95552.72;5053308;28;20042;-78
2022/08/20 06:24:08;;;;;;;28.23;17.20;;;;;;;16.14;100.00;95553.03;5071743;28;20063;-80
2022/08/20 06:26:33;;;;;;;27.25;15.88;;;;;;;16.17;100.00;95552.41;5066048;28;20040;-77
2022/08/20 06:29:00;;;;;;;28.83;16.10;;;;;;;16.20;100.00;95553.69;5064386;28;20510;-77
2022/08/20 06:31:26;;;;;;;30.13;16.80;;;;;;;16.23;100.00;95548.56;5066422;28;20063;-77
2022/08/20 06:33:52;;;;;;;27.88;17.20;;;;;;;16.23;100.00;95553.06;5059705;28;20041;-77
2022/08/20 06:36:18;;;;;;;28.50;16.13;;;;;;;16.29;100.00;95562.47;5071551;28;20098;-77
2022/08/20 06:38:44;;;;;;;32.58;17.33;;;;;;;16.31;100.00;95554.22;5069135;28;20036;-77
2022/08/20 06:41:10;;;;;;;29.92;17.23;;;;;;;16.35;100.00;95555.97;5072335;28;20032;-77
2022/08/20 06:43:36;;;;;;;26.20;15.95;;;;;;;16.42;100.00;95561.63;5052299;28;20040;-80
2022/08/20 06:46:01;;;;;;;25.27;16.02;;;;;;;16.44;100.00;95562.09;5071964;28;20049;-78
2022/08/20 06:48:27;;;;;;;25.73;15.75;;;;;;;16.45;100.00;95561.00;5070763;28;20040;-77
2022/08/20 06:50:52;;;;;;;24.25;15.00;;;;;;;16.48;100.00;95548.19;5051374;28;20044;-78
2022/08/20 06:53:19;;;;;;;28.40;16.40;;;;;;;16.51;100.00;95558.22;5065424;28;20048;-78
2022/08/20 06:55:49;;;;;;;27.35;15.52;;;;;;;16.47;100.00;95562.59;5069554;28;20039;-77
2022/08/20 06:58:15;;;;;;;25.63;14.85;;;;;;;16.51;100.00;95561.66;5069093;28;20044;-77
2022/08/20 07:00:42;;;;;;;26.08;15.20;;;;;;;16.56;100.00;95566.06;5049727;28;20040;-77
2022/08/20 07:03:08;;;;;;;25.40;15.52;;;;;;;16.55;100.00;95564.47;5050961;28;21923;-76
2022/08/20 07:05:37;;;;;;;29.10;16.17;;;;;;;16.59;100.00;95570.75;5068846;28;20041;-77
2022/08/20 07:08:03;;;;;;;27.90;16.02;;;;;;;16.60;100.00;95567.00;5062607;28;20040;-77
2022/08/20 07:10:30;;;;;;;25.70;15.43;;;;;;;16.62;100.00;95576.25;5066457;28;20063;-77
2022/08/20 07:12:58;;;;;;;24.50;15.20;;;;;;;16.61;100.00;95573.91;5058084;28;20049;-77
2022/08/20 07:15:24;;;;;;;32.63;16.40;;;;;;;16.62;100.00;95578.09;5050621;28;20071;-77
2022/08/20 07:17:57;;;;;;;25.83;15.50;;;;;;;16.55;100.00;95578.56;5062603;28;20512;-79
2022/08/20 07:20:24;;;;;;;26.08;15.15;;;;;;;16.54;100.00;95579.66;5039530;28;20041;-81
2022/08/20 07:22:50;;;;;;;24.88;15.50;;;;;;;16.55;100.00;95583.06;5064111;28;20595;-79
2022/08/20 07:25:17;;;;;;;25.83;15.23;;;;;;;16.59;100.00;95587.50;5052639;28;20040;-81
2022/08/20 07:27:45;;;;;;;24.60;14.20;;;;;;;16.61;100.00;95587.19;5045428;28;20124;-79
2022/08/20 07:32:59;;;;;;;24.20;14.52;;;;;;;16.59;100.00;95589.34;5070273;28;20145;-79
2022/08/20 07:35:25;;;;;;;22.48;13.45;;;;;;;16.63;100.00;95592.97;5070185;28;20537;-78
2022/08/20 07:37:53;;;;;;;22.83;14.75;;;;;;;16.67;100.00;95593.94;5067540;28;20051;-78
2022/08/20 07:40:28;;;;;;;22.30;13.77;;;;;;;16.65;100.00;95596.13;5052584;28;20040;-78
2022/08/20 07:42:55;;;;;;;22.73;14.52;;;;;;;16.70;100.00;95595.97;5064149;28;20036;-80
2022/08/20 07:45:21;;;;;;;23.98;14.52;;;;;;;16.75;100.00;95601.16;5070257;28;20755;-78
2022/08/20 07:47:48;;;;;;;22.40;13.63;;;;;;;16.76;100.00;95597.38;5071370;28;20041;-78
2022/08/20 07:50:17;;;;;;;24.25;15.18;;;;;;;16.80;100.00;95608.22;5059225;28;20525;-79
2022/08/20 07:52:44;;;;;;;22.08;13.75;;;;;;;16.82;100.00;95606.00;5066776;28;20045;-79
2022/08/20 07:55:11;;;;;;;23.98;14.05;;;;;;;16.97;100.00;95607.53;5072206;28;20101;-78
2022/08/20 07:57:38;;;;;;;22.20;12.98;;;;;;;16.97;100.00;95607.53;5060590;28;20029;-78
2022/08/20 08:00:07;;;;;;;19.60;12.70;;;;;;;16.99;100.00;95605.31;5062943;28;20032;-78
2022/08/20 08:02:32;;;;;;;23.40;14.20;;;;;;;16.95;100.00;95604.38;5070441;28;20043;-82
2022/08/20 08:04:58;;;;;;;20.98;12.93;;;;;;;17.00;100.00;95612.22;5069103;28;20044;-79
2022/08/20 08:07:25;;;;;;;21.33;13.50;;;;;;;17.01;100.00;95597.84;5061722;28;20036;-79
2022/08/20 08:09:51;;;;;;;21.58;13.60;;;;;;;17.04;100.00;95610.50;5044414;28;20701;-79
2022/08/20 08:12:16;;;;;;;21.25;13.15;;;;;;;16.99;100.00;95597.34;5066843;28;20072;-79
2022/08/20 08:14:44;;;;;;;20.58;12.30;;;;;;;17.05;100.00;95604.13;5068326;28;20457;-80
2022/08/20 08:17:11;;;;;;;21.67;12.88;;;;;;;17.10;100.00;95606.63;5050707;28;20047;-81
2022/08/20 08:19:43;;;;;;;21.15;12.68;;;;;;;17.18;100.00;95601.63;5066138;28;20040;-79
2022/08/20 08:22:11;;;;;;;21.23;13.68;;;;;;;17.28;100.00;95590.69;5067626;28;20040;-79
2022/08/20 08:24:40;;;;;;;24.08;13.73;;;;;;;17.27;100.00;95610.44;5067009;28;20496;-79
2022/08/20 08:27:07;;;;;;;21.98;13.07;;;;;;;17.29;100.00;95613.56;5067293;28;20051;-79
2022/08/20 08:29:34;;;;;;;19.23;12.88;;;;;;;17.38;100.00;95610.91;5039122;28;20517;-78
2022/08/20 08:32:01;;;;;;;22.75;14.00;;;;;;;17.40;100.00;95612.16;5049848;28;20075;-79
2022/08/20 08:34:26;;;;;;;20.67;13.05;;;;;;;17.37;100.00;95610.13;5063424;28;20634;-79
2022/08/20 08:36:52;;;;;;;21.98;12.98;;;;;;;17.35;100.00;95622.94;5066158;28;20043;-79
2022/08/20 08:39:18;;;;;;;22.30;12.80;;;;;;;17.36;100.00;95623.75;5047558;28;20053;-80
2022/08/20 08:41:48;;;;;;;20.92;13.57;;;;;;;17.27;100.00;95621.06;5042413;28;20041;-78
2022/08/20 08:44:22;;;;;;;20.80;13.40;;;;;;;17.27;100.00;95616.53;5066565;28;20455;-78
2022/08/20 08:46:55;;;;;;;19.13;12.00;;;;;;;17.19;100.00;95613.84;5044933;28;20110;-78
2022/08/20 08:49:25;;;;;;;17.23;12.43;;;;;;;17.16;100.00;95619.78;5063402;28;20075;-78
2022/08/20 08:51:57;;;;;;;20.92;12.93;;;;;;;17.23;100.00;95625.44;5049302;28;20041;-78
2022/08/20 08:54:27;;;;;;;19.17;12.75;;;;;;;17.11;100.00;95624.16;5052962;28;20032;-79
2022/08/20 08:56:53;;;;;;;19.85;12.10;;;;;;;17.16;100.00;95619.78;5071288;28;20452;-80
2022/08/20 08:59:20;;;;;;;21.67;13.38;;;;;;;17.11;100.00;95634.78;5047447;28;20049;-78
2022/08/20 09:01:49;;;;;;;20.80;12.38;;;;;;;17.00;100.00;95633.50;5069555;28;20079;-78
2022/08/20 09:04:20;;;;;;;20.75;13.05;;;;;;;16.92;100.00;95634.22;5073159;28;20078;-78
2022/08/20 09:06:47;;;;;;;21.00;13.65;;;;;;;16.94;100.00;95634.72;5042502;28;20057;-79
2022/08/20 09:09:28;;;;;;;18.88;13.23;;;;;;;16.96;100.00;95632.53;5073181;28;20036;-79
2022/08/20 09:12:01;;;;;;;24.25;13.63;;;;;;;16.89;100.00;95632.19;5070020;28;20044;-79
2022/08/20 09:14:26;;;;;;;17.27;12.60;;;;;;;16.92;100.00;95636.88;5055785;28;20149;-78
2022/08/20 09:16:52;;;;;;;20.10;13.48;;;;;;;17.00;100.00;95644.13;5074101;28;20501;-78
2022/08/20 09:19:17;;;;;;;24.38;14.07;;;;;;;16.96;100.00;95637.84;5050843;28;20600;-79
2022/08/20 09:21:43;;;;;;;22.30;13.75;;;;;;;17.02;100.00;95639.28;5066315;28;20039;-79
2022/08/20 09:24:08;;;;;;;21.33;14.35;;;;;;;16.98;100.00;95640.97;5067275;28;20040;-78
2022/08/20 09:26:34;;;;;;;19.95;13.63;;;;;;;17.07;100.00;95649.00;5073379;28;20530;-83
2022/08/20 09:28:59;;;;;;;22.10;13.63;;;;;;;17.06;100.00;95642.88;5052808;28;20043;-78
2022/08/20 09:31:25;;;;;;;25.48;14.43;;;;;;;17.11;100.00;95639.28;5054862;28;20119;-78
2022/08/20 09:33:51;;;;;;;21.20;15.02;;;;;;;17.11;100.00;95645.41;5068671;28;20067;-78
2022/08/20 09:36:17;;;;;;;24.42;14.98;;;;;;;17.00;100.00;95641.47;5059549;28;20071;-77
2022/08/20 09:38:42;;;;;;;21.38;14.82;;;;;;;17.10;100.00;95649.16;5053165;28;20410;-80
2022/08/20 09:41:09;;;;;;;24.00;15.20;;;;;;;17.20;100.00;95636.69;5070781;28;20052;-78
2022/08/20 09:43:34;;;;;;;24.95;16.20;;;;;;;17.22;100.00;95639.81;5039334;28;20048;-80
2022/08/20 09:46:00;;;;;;;22.30;14.45;;;;;;;17.26;100.00;95638.09;5069793;28;20041;-78
2022/08/20 09:48:25;;;;;;;24.00;15.32;;;;;;;17.13;100.00;95632.59;5039996;28;20060;-80
2022/08/20 09:50:52;;;;;;;19.58;14.20;;;;;;;17.18;100.00;95644.19;5068311;28;20043;-78
2022/08/20 09:53:19;;;;;;;23.63;16.17;;;;;;;17.24;100.00;95632.31;5066759;28;20036;-78
2022/08/20 09:55:50;;;;;;;22.50;15.75;;;;;;;17.32;100.00;95639.53;5068216;28;20040;-78
2022/08/20 09:58:34;;;;;;;21.90;15.80;;;;;;;17.33;100.00;95630.47;5074584;28;20072;-78
2022/08/20 10:01:07;;;;;;;21.80;15.82;;;;;;;17.39;100.00;95634.53;5065478;28;20040;-79
2022/08/20 10:03:32;;;;;;;24.08;15.48;;;;;;;17.42;100.00;95625.94;5066118;28;20465;-79
2022/08/20 10:05:58;;;;;;;22.10;15.27;;;;;;;17.48;100.00;95631.91;5062068;28;20045;-79
2022/08/20 10:08:24;;;;;;;22.75;15.50;;;;;;;17.57;100.00;95623.91;5074238;28;20055;-78
2022/08/20 10:10:50;;;;;;;22.98;15.75;;;;;;;17.56;100.00;95623.16;5064421;28;20041;-79
2022/08/20 10:13:15;;;;;;;28.73;16.48;;;;;;;17.56;100.00;95627.69;5051812;28;20040;-80
2022/08/20 10:15:42;;;;;;;23.45;15.77;;;;;;;17.64;100.00;95634.88;5069337;28;20064;-79
2022/08/20 10:18:07;;;;;;;27.05;16.60;;;;;;;17.62;100.00;95631.78;5069115;28;20037;-79
2022/08/20 10:20:34;;;;;;;24.30;16.38;;;;;;;17.64;100.00;95629.56;5065773;28;20111;-80
2022/08/20 10:23:00;;;;;;;28.85;16.42;;;;;;;17.65;100.00;95626.59;5051198;28;20037;-80
2022/08/20 10:25:27;;;;;;;25.33;17.00;;;;;;;17.68;100.00;95619.88;5052819;28;20090;-79
2022/08/20 10:27:53;;;;;;;27.05;17.35;;;;;;;17.66;100.00;95624.72;5069314;28;20044;-79
2022/08/20 10:30:20;;;;;;;24.58;17.65;;;;;;;17.75;100.00;95617.53;5050190;28;20051;-79
2022/08/20 10:32:45;;;;;;;26.27;17.05;;;;;;;17.75;100.00;95625.50;5065662;28;20134;-80
2022/08/20 10:35:11;;;;;;;25.67;16.58;;;;;;;17.81;100.00;95618.16;5068974;28;20486;-80
2022/08/20 10:37:37;;;;;;;24.05;15.77;;;;;;;17.76;100.00;95624.41;5058672;28;20044;-80
2022/08/20 10:40:03;;;;;;;25.70;15.95;;;;;;;17.88;100.00;95623.03;5069686;28;20044;-80
2022/08/20 10:42:29;;;;;;;23.35;16.33;;;;;;;17.76;100.00;95627.09;5053153;28;20060;-79
2022/08/20 10:44:55;;;;;;;23.98;16.17;;;;;;;17.88;100.00;95628.34;5067683;28;20064;-79
2022/08/20 10:47:26;;;;;;;28.92;19.55;;;;;;;17.92;100.00;95629.31;5065936;28;20052;-79
2022/08/20 10:49:53;;;;;;;26.83;18.98;;;;;;;17.84;100.00;95633.50;5067880;28;20041;-79
2022/08/20 10:52:20;;;;;;;25.27;16.83;;;;;;;17.91;100.00;95627.75;5065572;28;20464;-79
2022/08/20 10:54:45;;;;;;;25.48;17.27;;;;;;;17.84;100.00;95636.97;5070692;28;20085;-79
2022/08/20 10:57:17;;;;;;;28.67;18.30;;;;;;;17.83;100.00;95632.72;5067420;28;20120;-81
2022/08/20 10:59:44;;;;;;;24.25;17.52;;;;;;;17.72;100.00;95626.13;5062228;28;20052;-81
2022/08/20 11:02:10;;;;;;;29.75;17.40;;;;;;;17.71;100.00;95629.88;5066233;28;20614;-79
2022/08/20 11:04:36;;;;;;;27.58;18.15;;;;;;;17.79;100.00;95626.44;5057327;28;20045;-78
2022/08/20 11:07:17;;;;;;;27.25;17.75;;;;;;;17.72;100.00;95631.47;5064935;28;20044;-78
2022/08/20 11:09:45;;;;;;;26.48;18.27;;;;;;;17.77;100.00;95622.53;5043912;28;20064;-79
2022/08/20 11:12:11;;;;;;;30.40;18.40;;;;;;;17.92;100.00;95624.78;5068330;28;20041;-79
2022/08/20 11:14:37;;;;;;;28.35;19.70;;;;;;;17.97;100.00;95621.16;5065476;28;20490;-78